Time;durP1;ratioP1;P1;durP2;ratioP2;P2;SDS_P1;SDS_P2;PMS_P1;PMS_P2;Temp;Humidity;BMP_temperature;BMP_pressure;BME280_temperature;BME280_humidity;BME280_pressure;Samples;Min_cycle;Max_cycle;Signal;HPM_P1;HPM_P2
2022/02/02 00:00:18;;;;;;;;;9.75;8.75;;;;;11.90;74.75;101613.69;5033583;28;45590;-75
2022/02/02 00:02:54;;;;;;;;;8.50;8.00;;;;;11.94;74.77;101618.66;5033327;28;47718;-74
2022/02/02 00:07:58;;;;;;;;;8.00;7.25;;;;;11.93;74.64;101610.91;5033266;28;45810;-74
2022/02/02 00:13:02;;;;;;;;;7.00;7.00;;;;;11.92;74.53;101607.44;5055380;28;45618;-77
2022/02/02 00:20:39;;;;;;;;;11.25;9.00;;;;;11.89;74.43;101602.34;5055253;28;45666;-76
2022/02/02 00:23:13;;;;;;;;;9.25;7.75;;;;;11.92;74.33;101601.34;5054814;28;47304;-75
2022/02/02 00:25:48;;;;;;;;;9.75;9.00;;;;;11.96;74.31;101615.97;5054852;28;47125;-75
2022/02/02 00:28:13;;;;;;;;;13.00;9.75;;;;;11.95;74.34;101604.59;5054216;28;45593;-76
2022/02/02 00:30:39;;;;;;;;;11.00;8.75;;;;;11.96;74.29;101608.06;5054956;28;45890;-76
2022/02/02 00:35:36;;;;;;;;;7.50;6.75;;;;;11.93;74.26;101613.53;5054928;28;46203;-75
2022/02/02 00:38:02;;;;;;;;;10.75;9.50;;;;;11.90;74.34;101585.66;5055038;28;45646;-74
2022/02/02 00:40:27;;;;;;;;;7.00;6.75;;;;;11.95;74.39;101606.38;5055463;28;45741;-76
2022/02/02 00:42:53;;;;;;;;;11.00;9.50;;;;;11.94;74.06;101597.66;5055271;28;46283;-76
2022/02/02 00:45:19;;;;;;;;;9.00;7.25;;;;;11.94;74.29;101609.94;5054847;28;45960;-75
2022/02/02 00:47:49;;;;;;;;;8.00;7.00;;;;;11.92;74.06;101611.84;5055286;28;45661;-76
2022/02/02 00:50:14;;;;;;;;;6.75;6.75;;;;;11.94;74.11;101610.78;5054981;28;45770;-77
2022/02/02 00:52:40;;;;;;;;;9.25;8.50;;;;;11.93;74.13;101603.03;5055165;28;46252;-77
2022/02/02 00:55:06;;;;;;;;;9.75;8.00;;;;;11.98;74.04;101614.09;5054842;28;46015;-77
2022/02/02 00:57:31;;;;;;;;;9.75;7.00;;;;;11.98;74.20;101624.59;5053744;28;45560;-74
2022/02/02 00:59:58;;;;;;;;;8.50;6.25;;;;;11.96;74.02;101618.59;5053919;28;45641;-74
2022/02/02 01:02:24;;;;;;;;;10.00;8.25;;;;;11.90;74.02;101614.53;5054837;28;45487;-73
2022/02/02 01:04:50;;;;;;;;;10.75;8.00;;;;;11.97;74.06;101633.41;5056919;28;46203;-74
2022/02/02 01:07:25;;;;;;;;;7.00;7.00;;;;;11.97;74.15;101623.75;5062014;28;45467;-76
2022/02/02 01:10:05;;;;;;;;;9.50;7.00;;;;;11.96;73.97;101643.06;5056971;28;45746;-75
2022/02/02 01:28:22;;;;;;;;;8.00;7.50;;;;;11.89;74.09;101612.00;5054483;28;45449;-74
2022/02/02 01:30:48;;;;;;;;;8.00;5.00;;;;;11.95;73.91;101619.50;5055021;28;45597;-74
2022/02/02 01:33:14;;;;;;;;;7.75;7.75;;;;;11.90;73.86;101601.41;5054742;28;45554;-77
2022/02/02 01:35:39;;;;;;;;;9.00;8.00;;;;;11.91;73.93;101605.75;5053929;28;46915;-76
2022/02/02 01:38:05;;;;;;;;;7.00;4.75;;;;;11.94;73.87;101625.69;5053977;28;45682;-76
2022/02/02 01:40:35;;;;;;;;;7.50;6.00;;;;;11.95;74.17;101615.09;5056768;28;45899;-76
2022/02/02 01:43:15;;;;;;;;;9.00;7.00;;;;;11.98;73.95;101624.59;5056795;28;46475;-75
2022/02/02 01:45:46;;;;;;;;;8.00;7.50;;;;;11.98;74.02;101627.22;5057693;28;46478;-78
2022/02/02 01:48:29;;;;;;;;;7.00;6.50;;;;;11.98;73.60;101617.56;5057895;28;45712;-76
2022/02/02 01:53:40;;;;;;;;;9.75;7.00;;;;;11.95;73.94;101624.78;5057343;28;45637;-74
2022/02/02 01:56:09;;;;;;;;;7.75;7.00;;;;;11.96;73.92;101636.97;5057279;28;46323;-76
2022/02/02 02:01:20;;;;;;;;;8.00;7.00;;;;;11.94;73.61;101630.94;5057759;28;45689;-75
2022/02/02 02:03:45;;;;;;;;;9.50;8.25;;;;;11.92;73.90;101619.72;5057537;28;45666;-75
2022/02/02 02:06:11;;;;;;;;;10.00;9.00;;;;;11.91;73.91;101625.91;5039212;28;46134;-74
2022/02/02 02:08:40;;;;;;;;;7.75;7.75;;;;;11.89;73.77;101644.38;5057661;28;45670;-74
2022/02/02 02:11:08;;;;;;;;;11.75;7.25;;;;;11.92;73.84;101630.22;5057582;28;45444;-74
2022/02/02 02:14:10;;;;;;;;;8.25;5.00;;;;;11.93;73.94;101630.09;5057153;28;47342;-77
2022/02/02 02:16:29;;;;;;;;;10.00;9.75;;;;;11.90;73.77;101629.44;5057279;28;45946;-75
2022/02/02 02:18:57;;;;;;;;;9.75;8.75;;;;;11.87;73.75;101621.78;5057349;28;45904;-76
2022/02/02 02:21:23;;;;;;;;;9.50;8.50;;;;;11.87;74.12;101620.00;5057852;28;45686;-74
2022/02/02 02:23:49;;;;;;;;;9.00;8.00;;;;;11.90;74.04;101626.81;5057087;28;46488;-75
2022/02/02 02:26:27;;;;;;;;;10.00;9.25;;;;;11.89;74.03;101618.09;5057493;28;46185;-74
2022/02/02 02:29:46;;;;;;;;;5.25;4.75;;;;;11.88;73.91;101639.19;5057418;28;45620;-74
2022/02/02 02:37:30;;;;;;;;;9.50;9.00;;;;;11.85;74.20;101618.38;5057297;28;45795;-74
2022/02/02 02:56:54;;;;;;;;;10.75;10.00;;;;;11.83;74.42;101615.00;5039150;28;45932;-73
2022/02/02 02:59:33;;;;;;;;;16.00;13.25;;;;;11.87;74.50;101635.75;5039859;28;45855;-75
2022/02/02 03:30:49;;;;;;;;;11.25;10.50;;;;;11.73;74.79;101617.34;5057776;28;45561;-74
2022/02/02 03:55:22;;;;;;;;;8.25;7.25;;;;;11.74;75.18;101630.38;5055810;28;45974;-75
2022/02/02 04:00:44;;;;;;;;;8.50;7.50;;;;;11.74;75.09;101640.03;5055880;28;45632;-74
2022/02/02 04:03:38;;;;;;;;;10.50;9.00;;;;;11.75;75.00;101646.97;5054604;28;45740;-76
2022/02/02 04:06:07;;;;;;;;;8.50;8.00;;;;;11.74;75.02;101633.00;5055396;28;46333;-76
2022/02/02 04:16:12;;;;;;;;;8.25;7.00;;;;;11.74;74.78;101646.13;5055281;28;46169;-75
2022/02/02 04:17:54;;;;;;;;;9.25;8.00;;;;;11.74;75.29;101653.16;5053025;28;46693;-77
2022/02/02 04:37:48;;;;;;;;;7.25;7.25;;;;;11.68;75.08;101646.44;5055742;28;45598;-76
2022/02/02 05:16:47;;;;;;;;;11.50;11.50;;;;;11.54;75.19;101643.81;5054523;28;45853;-73
2022/02/02 05:51:20;;;;;;;;;10.00;9.00;;;;;11.56;75.04;101665.53;4992252;28;45771;-75
2022/02/02 05:57:12;;;;;;;;;11.25;8.75;;;;;11.59;75.22;101670.63;4991943;28;46191;-75
2022/02/02 05:59:41;;;;;;;;;11.00;8.75;;;;;11.57;75.22;101674.25;4991967;28;45744;-74
2022/02/02 06:02:10;;;;;;;;;9.75;9.00;;;;;11.62;75.26;101675.69;4991995;28;45813;-76
2022/02/02 06:04:45;;;;;;;;;10.50;8.00;;;;;11.62;75.24;101680.94;4992029;28;46439;-76
2022/02/02 06:07:11;;;;;;;;;8.50;7.00;;;;;11.59;75.17;101678.50;5023990;28;46175;-75
2022/02/02 06:13:00;;;;;;;;;4.00;4.00;;;;;11.62;75.12;101673.06;5053709;28;45539;-75
2022/02/02 06:15:26;;;;;;;;;5.75;4.00;;;;;11.56;75.17;101673.41;5054058;28;46572;-74
2022/02/02 06:17:53;;;;;;;;;6.25;4.00;;;;;11.58;75.08;101682.06;5053915;28;47103;-76
2022/02/02 06:20:20;;;;;;;;;7.00;5.25;;;;;11.60;75.06;101681.97;5069857;28;45697;-75
2022/02/02 06:23:16;;;;;;;;;6.75;4.25;;;;;11.58;75.12;101682.06;5053676;28;45768;-76
2022/02/02 06:29:06;;;;;;;;;3.75;3.75;;;;;11.59;75.19;101685.53;5057121;28;45866;-76
2022/02/02 06:31:35;;;;;;;;;3.75;3.00;;;;;11.63;75.08;101694.91;5057193;28;45473;-77
2022/02/02 06:34:02;;;;;;;;;5.25;3.50;;;;;11.62;74.98;101698.47;5055980;28;45760;-75
2022/02/02 06:36:30;;;;;;;;;4.25;3.00;;;;;11.60;74.84;101689.84;5056661;28;46598;-74
2022/02/02 06:38:57;;;;;;;;;3.00;1.00;;;;;11.61;74.91;101689.75;5056509;28;47077;-73
2022/02/02 06:44:45;;;;;;;;;3.00;2.50;;;;;11.56;74.84;101689.16;5056993;28;45552;-76
2022/02/02 06:47:10;;;;;;;;;3.00;1.50;;;;;11.47;74.98;101683.59;5056861;28;46354;-76
2022/02/02 06:49:38;;;;;;;;;3.25;2.00;;;;;11.49;74.94;101674.72;5057132;28;45687;-77
2022/02/02 06:52:14;;;;;;;;;3.50;3.00;;;;;11.60;74.99;101693.31;5056746;28;45749;-75
2022/02/02 06:55:09;;;;;;;;;3.00;2.00;;;;;11.60;74.85;101705.59;5072469;28;45955;-76
2022/02/02 06:57:54;;;;;;;;;2.25;2.00;;;;;11.60;75.12;101719.56;5057074;28;46680;-74
2022/02/02 07:00:42;;;;;;;;;2.00;2.00;;;;;11.60;75.09;101714.31;5057213;28;45937;-75
2022/02/02 07:03:57;;;;;;;;;2.00;1.75;;;;;11.59;75.07;101707.38;5057299;28;45689;-76
2022/02/02 07:06:26;;;;;;;;;2.00;2.00;;;;;11.61;75.43;101717.75;5054630;28;45927;-73
2022/02/02 07:09:17;;;;;;;;;2.00;1.25;;;;;11.56;75.51;101728.53;5056791;28;46186;-76
2022/02/02 07:12:09;;;;;;;;;1.75;1.75;;;;;11.56;75.68;101723.28;5054828;28;45931;-74
2022/02/02 07:20:09;;;;;;;;;1.00;1.00;;;;;11.55;75.46;101736.50;5054393;28;45677;-74
2022/02/02 07:34:18;;;;;;;;;2.00;2.00;;;;;11.56;75.22;101744.28;5013976;28;46144;-76
2022/02/02 07:36:50;;;;;;;;;1.75;1.75;;;;;11.50;75.59;101739.38;5013681;28;45737;-76
2022/02/02 07:39:16;;;;;;;;;2.50;2.50;;;;;11.54;75.74;101748.78;4997009;28;45647;-77
2022/02/02 07:45:08;;;;;;;;;2.75;2.00;;;;;11.59;75.79;101752.00;4993687;28;45629;-77
2022/02/02 07:47:37;;;;;;;;;2.00;2.00;;;;;11.60;75.66;101747.59;4993561;28;45571;-76
2022/02/02 07:50:05;;;;;;;;;4.00;3.50;;;;;11.59;75.65;101765.13;4994072;28;45772;-75
2022/02/02 07:52:32;;;;;;;;;4.00;3.75;;;;;11.62;75.68;101764.94;4993741;28;45576;-74
2022/02/02 07:55:00;;;;;;;;;7.00;4.00;;;;;11.63;75.88;101766.63;4993246;28;47392;-74
2022/02/02 07:57:28;;;;;;;;;3.75;3.50;;;;;11.66;75.58;101763.00;4993667;28;45695;-75
2022/02/02 07:59:59;;;;;;;;;4.00;3.00;;;;;11.69;75.57;101761.03;4993611;28;45863;-73
2022/02/02 08:02:54;;;;;;;;;4.00;3.00;;;;;11.70;75.61;101761.88;5036929;28;45719;-74
2022/02/02 08:05:20;;;;;;;;;6.00;6.00;;;;;11.69;75.83;101753.16;5055724;28;46192;-75
2022/02/02 08:07:56;;;;;;;;;8.00;4.25;;;;;11.69;75.62;101754.94;5055492;28;45776;-74
2022/02/02 08:10:23;;;;;;;;;4.25;3.00;;;;;11.68;75.60;101755.84;5056498;28;45911;-76
2022/02/02 08:12:54;;;;;;;;;3.25;3.00;;;;;11.68;75.57;101768.97;5055562;28;46581;-76
2022/02/02 08:15:22;;;;;;;;;3.50;2.75;;;;;11.67;75.67;101762.03;5058111;28;46051;-76
2022/02/02 08:17:50;;;;;;;;;6.50;5.50;;;;;11.66;75.80;101758.56;5057160;28;45643;-76
2022/02/02 08:20:15;;;;;;;;;7.00;4.50;;;;;11.66;75.68;101763.81;5056363;28;45560;-75
2022/02/02 08:22:41;;;;;;;;;4.00;2.75;;;;;11.68;75.52;101769.84;5054786;28;46705;-75
2022/02/02 08:25:16;;;;;;;;;9.00;4.00;;;;;11.71;75.71;101763.56;5054949;28;47155;-75
2022/02/02 08:27:43;;;;;;;;;5.75;3.00;;;;;11.71;75.42;101769.66;5037038;28;45774;-75
2022/02/02 08:30:15;;;;;;;;;2.25;2.00;;;;;11.68;75.29;101771.59;5055107;28;45518;-77
2022/02/02 08:32:45;;;;;;;;;5.00;3.00;;;;;11.72;75.46;101776.59;5054622;28;46796;-76
2022/02/02 08:35:11;;;;;;;;;2.00;2.00;;;;;11.74;75.48;101787.91;5054694;28;47544;-78
2022/02/02 08:37:40;;;;;;;;;3.00;2.25;;;;;11.75;75.26;101784.34;5053530;28;45766;-75
2022/02/02 08:40:28;;;;;;;;;3.00;2.25;;;;;11.77;75.25;101768.47;5055002;28;45543;-77
2022/02/02 08:42:55;;;;;;;;;2.50;2.00;;;;;11.77;75.16;101778.97;5054737;28;46622;-77
2022/02/02 08:45:27;;;;;;;;;2.00;2.00;;;;;11.76;75.26;101779.94;5054512;28;46566;-77
2022/02/02 08:48:01;;;;;;;;;2.00;1.50;;;;;11.78;75.23;101791.19;5053372;28;45722;-76
2022/02/02 08:58:36;;;;;;;;;1.00;1.00;;;;;11.68;74.72;101777.72;5004526;28;45625;-77
2022/02/02 09:01:09;;;;;;;;;1.00;1.00;;;;;11.69;74.56;101779.41;5012812;28;45699;-77
2022/02/02 09:06:18;;;;;;;;;2.50;1.00;;;;;11.74;74.59;101785.28;5012250;28;45748;-77
2022/02/02 09:08:47;;;;;;;;;2.00;2.00;;;;;11.74;74.50;101777.41;5012227;28;45709;-77
2022/02/02 09:25:06;;;;;;;;;2.00;2.00;;;;;11.77;74.02;101778.97;5011984;28;46389;-76
2022/02/02 09:35:47;;;;;;;;;2.75;1.00;;;;;11.87;73.73;101774.91;5012004;28;46225;-76
2022/02/02 09:38:12;;;;;;;;;2.50;2.00;;;;;11.89;73.73;101780.06;5011728;28;45700;-76
2022/02/02 09:44:02;;;;;;;;;3.25;2.00;;;;;11.93;73.58;101782.41;5011823;28;45888;-77
2022/02/02 09:46:34;;;;;;;;;3.00;1.25;;;;;11.94;73.58;101796.41;4994823;28;46099;-75
2022/02/02 09:49:07;;;;;;;;;0.75;0.75;;;;;11.92;73.65;101782.53;5011951;28;46266;-76
2022/02/02 09:51:45;;;;;;;;;2.00;2.00;;;;;11.91;73.21;101778.22;5011637;28;45574;-78
2022/02/02 09:54:25;;;;;;;;;2.75;2.25;;;;;11.93;73.22;101792.09;5012022;28;45783;-76
2022/02/02 10:03:20;;;;;;;;;1.25;1.00;;;;;11.97;73.41;101793.63;5056430;28;45848;-74
2022/02/02 10:14:18;;;;;;;;;2.00;1.00;;;;;11.96;73.11;101803.28;4995059;28;45611;-77
2022/02/02 10:16:46;;;;;;;;;2.00;1.75;;;;;11.94;73.03;101809.53;4995444;28;45675;-76
2022/02/02 10:19:17;;;;;;;;;4.50;2.00;;;;;11.96;73.06;101808.53;4994887;28;47403;-76
2022/02/02 10:21:43;;;;;;;;;2.75;2.50;;;;;11.96;73.00;101810.31;4994773;28;47054;-77
2022/02/02 10:24:09;;;;;;;;;1.50;1.50;;;;;11.94;72.79;101793.78;4994370;28;45677;-76
2022/02/02 10:26:43;;;;;;;;;3.00;2.25;;;;;11.94;72.86;101797.25;4994967;28;45733;-77
2022/02/02 10:29:10;;;;;;;;;4.00;3.50;;;;;11.90;73.04;101790.50;4994758;28;46504;-75
2022/02/02 10:31:50;;;;;;;;;4.75;3.00;;;;;11.95;72.81;101806.81;4994965;28;45925;-77
2022/02/02 10:34:20;;;;;;;;;2.25;2.00;;;;;11.99;72.84;101815.38;4995246;28;45852;-76
2022/02/02 10:37:05;;;;;;;;;3.50;2.75;;;;;11.92;72.80;101801.75;4995180;28;45707;-76
2022/02/02 10:39:48;;;;;;;;;2.75;2.25;;;;;12.00;72.58;101815.28;4978063;28;47105;-76
2022/02/02 10:42:36;;;;;;;;;2.50;2.00;;;;;12.02;72.80;101817.81;4994774;28;46021;-76
2022/02/02 10:45:21;;;;;;;;;3.00;3.00;;;;;12.04;72.65;101829.94;5003400;28;45661;-75
2022/02/02 10:47:50;;;;;;;;;2.00;2.00;;;;;11.94;72.24;101818.25;5056660;28;45790;-75
2022/02/02 10:50:28;;;;;;;;;4.00;4.00;;;;;12.01;72.45;101827.50;5038583;28;47405;-76
2022/02/02 11:01:46;;;;;;;;;5.25;5.25;;;;;11.99;72.02;101821.47;5056385;28;45575;-76
2022/02/02 11:06:59;;;;;;;;;4.00;4.00;;;;;11.96;72.03;101816.41;5056276;28;45584;-76
2022/02/02 11:09:25;;;;;;;;;5.00;5.00;;;;;12.01;72.21;101818.75;5056610;28;45531;-76
2022/02/02 11:15:49;;;;;;;;;3.00;3.00;;;;;12.00;72.13;101811.81;5054197;28;46082;-75
2022/02/02 11:18:27;;;;;;;;;5.75;5.25;;;;;12.00;72.52;101806.56;5013710;28;45748;-75
2022/02/02 11:20:52;;;;;;;;;9.00;6.75;;;;;11.96;72.34;101807.69;5014229;28;45532;-74
2022/02/02 11:23:19;;;;;;;;;5.00;4.75;;;;;11.99;72.59;101807.47;5013665;28;47039;-76
2022/02/02 11:29:07;;;;;;;;;3.25;3.00;;;;;12.06;72.36;101812.31;5013679;28;45744;-75
2022/02/02 11:31:32;;;;;;;;;3.00;3.00;;;;;12.09;72.25;101824.44;5014022;28;45649;-76
2022/02/02 11:33:59;;;;;;;;;2.00;2.00;;;;;12.12;72.19;101819.00;5013682;28;46264;-76
2022/02/02 11:36:34;;;;;;;;;2.00;2.00;;;;;12.16;72.49;101833.63;5013566;28;46902;-75
2022/02/02 11:39:06;;;;;;;;;2.50;2.00;;;;;12.18;72.12;101823.88;4997586;28;45729;-76
2022/02/02 11:45:05;;;;;;;;;2.00;2.00;;;;;12.11;72.30;101804.16;5013479;28;45732;-76
2022/02/02 11:47:42;;;;;;;;;1.00;1.00;;;;;12.12;72.21;101809.31;5013150;28;47172;-76
2022/02/02 11:50:08;;;;;;;;;1.50;1.50;;;;;12.15;72.47;101822.28;5013665;28;45712;-75
2022/02/02 11:52:43;;;;;;;;;1.00;1.00;;;;;12.16;72.29;101807.34;5040721;28;45630;-77
2022/02/02 11:55:11;;;;;;;;;1.75;1.00;;;;;12.16;72.51;101812.59;5056055;28;45680;-76
2022/02/02 12:04:12;;;;;;;;;0.00;0.00;;;;;12.12;72.53;101817.22;5055237;28;45766;-75
2022/02/02 12:09:30;;;;;;;;;0.75;0.75;;;;;12.08;72.28;101820.09;5055324;28;46009;-76
2022/02/02 12:46:41;;;;;;;;;5.00;4.00;;;;;12.08;71.60;101807.81;5054583;28;45689;-76
2022/02/02 12:48:08;;;;;;;;;1.00;1.00;;;;;12.06;71.50;101796.53;5046572;28;45757;-75
2022/02/02 12:56:17;;;;;;;;;1.00;1.00;;;;;12.09;71.19;101798.16;5054587;28;45443;-77
2022/02/02 13:02:14;;;;;;;;;1.00;1.00;;;;;12.10;70.77;101800.69;5032049;28;46124;-78
2022/02/02 13:04:41;;;;;;;;;0.00;0.00;;;;;12.10;70.72;101781.44;5032006;28;47247;-78
2022/02/02 13:07:12;;;;;;;;;0.00;0.00;;;;;12.10;70.28;101774.41;5015240;28;45676;-78
2022/02/02 13:09:40;;;;;;;;;0.75;0.75;;;;;12.07;70.73;101766.72;5032356;28;45594;-78
2022/02/02 13:12:23;;;;;;;;;1.00;0.75;;;;;12.13;70.97;101791.78;5032097;28;46619;-77
2022/02/02 13:17:25;;;;;;;;;0.25;0.00;;;;;12.11;70.61;101785.75;5032235;28;45622;-76
2022/02/02 13:19:58;;;;;;;;;0.00;0.00;;;;;12.17;70.45;101788.03;5032368;28;45900;-75
2022/02/02 13:22:24;;;;;;;;;0.00;0.00;;;;;12.21;70.21;101805.31;5031850;28;46650;-76
2022/02/02 13:24:50;;;;;;;;;1.25;1.00;;;;;12.22;70.11;101788.59;5031403;28;45860;-77
2022/02/02 13:27:21;;;;;;;;;0.00;0.00;;;;;12.22;70.29;101795.63;5015735;28;45740;-76
2022/02/02 13:29:51;;;;;;;;;0.00;0.00;;;;;12.20;70.38;101780.81;5043481;28;45627;-76
2022/02/02 13:59:03;;;;;;;;;0.50;0.50;;;;;12.53;69.26;101793.72;5054100;28;45784;-78
2022/02/02 14:09:53;;;;;;;;;0.00;0.00;;;;;12.44;68.32;101798.69;5053803;28;45668;-78
2022/02/02 14:32:40;;;;;;;;;0.00;0.00;;;;;12.25;67.40;101769.22;5053424;28;45495;-78
2022/02/02 14:35:06;;;;;;;;;0.00;0.00;;;;;12.25;67.42;101785.81;5053589;28;45842;-77
2022/02/02 14:37:41;;;;;;;;;0.00;0.00;;;;;12.25;67.63;101792.84;5052986;28;46368;-77
2022/02/02 14:40:33;;;;;;;;;0.00;0.00;;;;;12.23;67.53;101785.06;5053587;28;45783;-77
2022/02/02 14:46:21;;;;;;;;;0.00;0.00;;;;;12.18;67.49;101792.34;5053672;28;45552;-76
2022/02/02 14:48:53;;;;;;;;;0.00;0.00;;;;;12.19;67.17;101794.06;5055869;28;47584;-77
2022/02/02 14:51:30;;;;;;;;;0.25;0.00;;;;;12.21;67.51;101797.41;5056616;28;46146;-76
2022/02/02 15:30:58;;;;;;;;;1.00;1.00;;;;;12.28;66.99;101788.25;5064011;28;45560;-78
2022/02/02 15:33:23;;;;;;;;;1.25;1.00;;;;;12.19;67.12;101792.28;5056928;28;47191;-77
2022/02/02 15:35:56;;;;;;;;;1.00;0.00;;;;;12.19;66.88;101791.44;5056296;28;47119;-77
2022/02/02 15:38:24;;;;;;;;;0.50;0.00;;;;;12.22;66.83;101798.28;5056459;28;45678;-77
2022/02/02 15:40:55;;;;;;;;;1.00;0.00;;;;;12.14;67.00;101804.00;5055228;28;45622;-76
2022/02/02 15:55:25;;;;;;;;;0.25;0.25;;;;;11.98;66.91;101782.19;5055451;28;46150;-76
2022/02/02 15:58:12;;;;;;;;;0.00;0.00;;;;;12.00;67.00;101788.16;5055443;28;45825;-76
2022/02/02 16:03:44;;;;;;;;;1.00;1.00;;;;;11.99;66.56;101781.22;4993492;28;45466;-76
2022/02/02 16:08:39;;;;;;;;;1.00;1.00;;;;;11.94;66.53;101781.50;4993572;28;46430;-78
2022/02/02 16:13:42;;;;;;;;;4.25;4.00;;;;;11.93;66.65;101787.66;4993347;28;45604;-77
2022/02/02 16:18:48;;;;;;;;;1.00;1.00;;;;;11.95;66.61;101771.84;5013145;28;46078;-77
2022/02/02 16:37:47;;;;;;;;;2.00;2.00;;;;;11.94;66.12;101751.75;5012616;28;45680;-76
2022/02/02 16:40:18;;;;;;;;;1.00;1.00;;;;;11.94;65.88;101749.97;5029802;28;46052;-76
2022/02/02 16:46:07;;;;;;;;;1.00;1.00;;;;;11.95;65.84;101761.31;5054975;28;45526;-78
2022/02/02 16:48:32;;;;;;;;;1.25;0.75;;;;;11.94;65.76;101762.25;5055218;28;46678;-77
2022/02/02 16:51:02;;;;;;;;;1.00;1.00;;;;;11.92;65.55;101762.38;5055010;28;45876;-77
2022/02/02 16:53:36;;;;;;;;;3.75;1.75;;;;;11.90;65.86;101753.72;5053551;28;45678;-76
2022/02/02 17:32:09;;;;;;;;;1.25;1.25;;;;;11.74;65.02;101745.03;5054073;28;45529;-77
2022/02/02 17:34:56;;;;;;;;;1.25;1.00;;;;;11.75;64.90;101754.63;5053868;28;46541;-78
2022/02/02 17:40:05;;;;;;;;;2.00;2.00;;;;;11.75;64.80;101762.50;5054306;28;45609;-77
2022/02/02 17:46:03;;;;;;;;;1.75;1.00;;;;;11.66;64.61;101734.13;5053919;28;45931;-77
2022/02/02 18:20:48;;;;;;;;;5.00;4.00;;;;;11.86;64.28;101751.38;5053605;28;45542;-77
2022/02/02 18:23:30;;;;;;;;;3.00;2.00;;;;;11.82;64.15;101752.50;5038009;28;45682;-77
2022/02/02 19:00:09;;;;;;;;;3.00;2.50;;;;;12.15;63.95;101761.00;4936614;28;45640;-77
2022/02/02 20:05:48;;;;;;;;;3.00;2.50;;;;;11.94;63.05;101733.38;4993808;28;45561;-77
2022/02/02 20:08:39;;;;;;;;;5.00;3.00;;;;;11.94;63.11;101741.25;4977184;28;45700;-75
2022/02/02 20:11:08;;;;;;;;;4.00;4.00;;;;;11.91;63.18;101747.53;5038041;28;45616;-75
2022/02/02 20:13:35;;;;;;;;;3.25;2.25;;;;;11.91;63.05;101746.69;5055788;28;45629;-76
2022/02/02 20:16:04;;;;;;;;;4.25;3.75;;;;;11.87;63.16;101740.78;5054263;28;47060;-76
2022/02/02 20:18:31;;;;;;;;;4.00;4.00;;;;;11.88;63.12;101758.22;5055967;28;45784;-74
2022/02/02 20:21:00;;;;;;;;;4.25;4.25;;;;;11.79;63.13;101753.50;5055455;28;45763;-77
2022/02/02 20:23:28;;;;;;;;;4.00;3.75;;;;;11.86;63.13;101772.38;5054361;28;47398;-74
2022/02/02 20:25:55;;;;;;;;;4.00;4.00;;;;;11.77;62.93;101750.94;5055206;28;45690;-73
2022/02/02 20:28:21;;;;;;;;;4.25;4.25;;;;;11.79;62.92;101761.38;5055845;28;45599;-75
2022/02/02 20:30:46;;;;;;;;;5.25;5.25;;;;;11.78;63.19;101759.69;5055478;28;45505;-75
2022/02/02 20:33:12;;;;;;;;;6.00;4.00;;;;;11.76;62.83;101764.19;5053220;28;46623;-77
2022/02/02 20:35:37;;;;;;;;;4.00;4.00;;;;;11.76;63.11;101766.81;5055491;28;45781;-77
2022/02/02 20:38:03;;;;;;;;;4.00;3.25;;;;;11.76;63.08;101774.69;5055589;28;45705;-75
2022/02/02 20:40:28;;;;;;;;;3.00;2.75;;;;;11.71;62.89;101767.03;5055444;28;45780;-78
2022/02/02 21:04:24;;;;;;;;;2.00;2.00;;;;;11.49;62.05;101765.72;5053001;28;45637;-78
2022/02/02 21:17:51;;;;;;;;;2.00;1.00;;;;;11.33;61.75;101758.72;5053255;28;45912;-76
2022/02/02 21:20:30;;;;;;;;;1.00;1.00;;;;;11.34;61.56;101764.78;5070666;28;45621;-76
2022/02/02 21:23:10;;;;;;;;;0.75;0.00;;;;;11.31;61.60;101750.06;5054330;28;45664;-77
2022/02/02 21:26:33;;;;;;;;;2.00;1.50;;;;;11.28;61.69;101750.22;5054654;28;46825;-76
2022/02/02 21:28:26;;;;;;;;;1.50;1.50;;;;;11.29;61.55;101756.31;5049553;28;46018;-77
2022/02/02 21:34:13;;;;;;;;;1.00;1.00;;;;;11.27;61.66;101748.56;5054631;28;45705;-73
2022/02/02 21:36:39;;;;;;;;;2.00;1.75;;;;;11.24;61.60;101748.72;5054932;28;46302;-76
2022/02/02 21:39:07;;;;;;;;;3.25;2.75;;;;;11.24;61.68;101743.47;5055049;28;46298;-78
2022/02/02 21:41:36;;;;;;;;;2.00;2.00;;;;;11.25;61.77;101746.94;5055726;28;45776;-76
2022/02/02 21:44:04;;;;;;;;;2.25;2.25;;;;;11.26;61.64;101738.16;5055557;28;45910;-77
2022/02/02 21:49:57;;;;;;;;;3.75;2.75;;;;;11.33;61.82;101744.75;5054373;28;45744;-76
2022/02/02 21:52:24;;;;;;;;;3.25;3.00;;;;;11.32;61.85;101741.28;5054780;28;45615;-76
2022/02/02 21:54:49;;;;;;;;;4.00;2.50;;;;;11.36;61.88;101747.19;5055982;28;45498;-76
2022/02/02 21:57:14;;;;;;;;;3.00;2.75;;;;;11.33;62.00;101732.47;5058686;28;47454;-75
2022/02/02 21:59:42;;;;;;;;;3.00;3.00;;;;;11.40;61.93;101740.81;5059778;28;47020;-74
2022/02/02 22:02:07;;;;;;;;;2.00;2.00;;;;;11.36;61.93;101727.03;5058758;28;45671;-76
2022/02/02 22:04:32;;;;;;;;;2.50;2.00;;;;;11.32;61.93;101715.03;5058113;28;45755;-77
2022/02/02 22:06:58;;;;;;;;;2.25;2.00;;;;;11.31;61.84;101717.75;5057496;28;46257;-77
2022/02/02 22:09:23;;;;;;;;;2.00;2.00;;;;;11.42;61.94;101730.25;5057132;28;46017;-76
2022/02/02 22:11:50;;;;;;;;;5.25;3.25;;;;;11.37;62.01;101714.78;5058190;28;45612;-74
2022/02/02 22:14:19;;;;;;;;;4.75;2.00;;;;;11.45;62.09;101719.56;5058127;28;45553;-75
2022/02/02 22:20:48;;;;;;;;;2.25;2.00;;;;;11.52;61.83;101718.31;5056556;28;45675;-76
2022/02/02 22:23:16;;;;;;;;;4.00;4.00;;;;;11.55;62.28;101718.97;5057890;28;45550;-75
2022/02/02 22:25:42;;;;;;;;;3.25;3.00;;;;;11.55;62.32;101721.59;5057696;28;45624;-75
2022/02/02 22:28:07;;;;;;;;;3.00;3.00;;;;;11.57;62.25;101724.13;5057940;28;46471;-75
2022/02/02 22:33:54;;;;;;;;;3.00;2.00;;;;;11.50;62.36;101710.50;5061175;28;45582;-76
2022/02/02 22:36:20;;;;;;;;;2.75;2.75;;;;;11.52;62.44;101716.53;5058371;28;45606;-74
2022/02/02 22:38:46;;;;;;;;;2.50;2.00;;;;;11.53;62.29;101723.47;5058121;28;46561;-74
2022/02/02 22:41:13;;;;;;;;;2.25;2.00;;;;;11.54;62.28;101721.69;5055762;28;47988;-76
2022/02/02 22:43:45;;;;;;;;;3.00;2.00;;;;;11.51;62.39;101716.59;5057314;28;45531;-76
2022/02/02 22:49:36;;;;;;;;;2.25;2.00;;;;;11.54;62.18;101713.81;5057086;28;45686;-75
2022/02/02 22:52:01;;;;;;;;;2.00;1.25;;;;;11.54;62.29;101711.19;5056920;28;47104;-75
2022/02/02 22:54:27;;;;;;;;;3.00;2.25;;;;;11.51;62.03;101703.47;5057016;28;45599;-75
2022/02/02 22:56:52;;;;;;;;;3.00;2.25;;;;;11.52;62.10;101710.44;5055683;28;45947;-74
2022/02/02 22:59:20;;;;;;;;;2.00;2.00;;;;;11.51;61.98;101703.47;5056922;28;46326;-75
2022/02/02 23:05:08;;;;;;;;;2.00;2.00;;;;;11.48;62.01;101701.91;5056756;28;45738;-75
2022/02/02 23:07:35;;;;;;;;;3.00;3.00;;;;;11.44;61.83;101682.03;5056822;28;45653;-75
2022/02/02 23:10:01;;;;;;;;;2.50;2.25;;;;;11.40;61.82;101688.34;5056663;28;45723;-76
2022/02/02 23:12:28;;;;;;;;;2.00;2.00;;;;;11.42;61.92;101688.28;5056814;28;45885;-76
2022/02/02 23:14:55;;;;;;;;;3.00;2.75;;;;;11.42;62.07;101690.91;5056401;28;45821;-74
2022/02/02 23:20:48;;;;;;;;;2.75;2.50;;;;;11.34;61.76;101684.28;5055655;28;46035;-75
2022/02/02 23:23:16;;;;;;;;;4.00;4.00;;;;;11.34;61.76;101688.69;5056752;28;46390;-75
2022/02/02 23:25:43;;;;;;;;;2.75;2.00;;;;;11.31;61.83;101686.25;5054754;28;45764;-75
2022/02/02 23:28:11;;;;;;;;;2.25;2.00;;;;;11.30;61.84;101680.16;5056749;28;45808;-76
2022/02/02 23:30:39;;;;;;;;;3.00;3.00;;;;;11.21;61.93;101672.81;5058290;28;46371;-75
2022/02/02 23:33:05;;;;;;;;;3.00;2.00;;;;;11.31;62.01;101681.00;5057122;28;46342;-75
2022/02/02 23:35:31;;;;;;;;;3.00;2.50;;;;;11.32;61.92;101674.84;5056511;28;45529;-73
2022/02/02 23:37:58;;;;;;;;;3.00;2.00;;;;;11.33;61.97;101679.16;5038324;28;45597;-75
2022/02/02 23:40:23;;;;;;;;;3.75;3.50;;;;;11.31;61.93;101673.16;5056562;28;45446;-74
2022/02/02 23:42:49;;;;;;;;;3.25;3.00;;;;;11.33;62.21;101671.28;5056308;28;45893;-75
2022/02/02 23:45:14;;;;;;;;;4.00;4.00;;;;;11.31;61.82;101674.00;5056060;28;45633;-74
2022/02/02 23:47:46;;;;;;;;;5.50;4.00;;;;;11.30;61.93;101668.81;5056567;28;45731;-75
2022/02/02 23:50:15;;;;;;;;;6.25;4.00;;;;;11.28;62.09;101663.66;5056217;28;45856;-75